sensor_id;sensor_type;location;lat;lon;timestamp;P1;durP1;ratioP1;P2;durP2;ratioP2
39370;SDS011;25099;51.946;4.838;2024-03-02T00:00:37;0.70;;;0.40;;
39370;SDS011;25099;51.946;4.838;2024-03-02T00:03:03;3.15;;;0.50;;
39370;SDS011;25099;51.946;4.838;2024-03-02T00:05:29;1.13;;;0.35;;
39370;SDS011;25099;51.946;4.838;2024-03-02T00:07:55;0.47;;;0.30;;
39370;SDS011;25099;51.946;4.838;2024-03-02T00:10:23;0.50;;;0.40;;
39370;SDS011;25099;51.946;4.838;2024-03-02T00:12:55;0.60;;;0.30;;
39370;SDS011;25099;51.946;4.838;2024-03-02T00:15:36;0.75;;;0.40;;
39370;SDS011;25099;51.946;4.838;2024-03-02T00:18:08;0.32;;;0.20;;
39370;SDS011;25099;51.946;4.838;2024-03-02T00:20:36;0.80;;;0.40;;
39370;SDS011;25099;51.946;4.838;2024-03-02T00:30:56;1.90;;;0.32;;
39370;SDS011;25099;51.946;4.838;2024-03-02T00:33:34;0.20;;;0.20;;
39370;SDS011;25099;51.946;4.838;2024-03-02T00:36:04;1.13;;;0.30;;
39370;SDS011;25099;51.946;4.838;2024-03-02T00:38:31;0.40;;;0.40;;
39370;SDS011;25099;51.946;4.838;2024-03-02T00:41:03;2.10;;;0.60;;
39370;SDS011;25099;51.946;4.838;2024-03-02T00:46:07;0.52;;;0.25;;
39370;SDS011;25099;51.946;4.838;2024-03-02T00:48:33;0.55;;;0.30;;
39370;SDS011;25099;51.946;4.838;2024-03-02T00:51:02;0.75;;;0.60;;
39370;SDS011;25099;51.946;4.838;2024-03-02T00:53:29;0.38;;;0.38;;
39370;SDS011;25099;51.946;4.838;2024-03-02T00:55:56;0.52;;;0.52;;
39370;SDS011;25099;51.946;4.838;2024-03-02T00:58:22;0.52;;;0.38;;
39370;SDS011;25099;51.946;4.838;2024-03-02T01:00:47;0.82;;;0.57;;
39370;SDS011;25099;51.946;4.838;2024-03-02T01:03:13;0.93;;;0.50;;
39370;SDS011;25099;51.946;4.838;2024-03-02T01:05:42;3.90;;;0.60;;
39370;SDS011;25099;51.946;4.838;2024-03-02T01:08:08;2.72;;;0.70;;
39370;SDS011;25099;51.946;4.838;2024-03-02T01:10:36;0.82;;;0.32;;
39370;SDS011;25099;51.946;4.838;2024-03-02T01:13:02;0.75;;;0.40;;
39370;SDS011;25099;51.946;4.838;2024-03-02T01:15:28;1.08;;;0.40;;
39370;SDS011;25099;51.946;4.838;2024-03-02T01:17:53;0.40;;;0.40;;
39370;SDS011;25099;51.946;4.838;2024-03-02T01:20:19;1.90;;;0.60;;
39370;SDS011;25099;51.946;4.838;2024-03-02T01:22:45;0.68;;;0.55;;
39370;SDS011;25099;51.946;4.838;2024-03-02T01:25:10;1.45;;;0.70;;
39370;SDS011;25099;51.946;4.838;2024-03-02T01:27:36;0.68;;;0.50;;
39370;SDS011;25099;51.946;4.838;2024-03-02T01:30:01;1.98;;;0.60;;
39370;SDS011;25099;51.946;4.838;2024-03-02T01:32:27;0.82;;;0.40;;
39370;SDS011;25099;51.946;4.838;2024-03-02T01:34:52;1.02;;;0.65;;
39370;SDS011;25099;51.946;4.838;2024-03-02T01:37:18;1.85;;;0.60;;
39370;SDS011;25099;51.946;4.838;2024-03-02T01:39:43;0.40;;;0.40;;
39370;SDS011;25099;51.946;4.838;2024-03-02T01:42:09;0.32;;;0.32;;
39370;SDS011;25099;51.946;4.838;2024-03-02T01:44:35;0.40;;;0.40;;
39370;SDS011;25099;51.946;4.838;2024-03-02T01:47:01;1.30;;;0.50;;
39370;SDS011;25099;51.946;4.838;2024-03-02T01:49:27;0.70;;;0.47;;
39370;SDS011;25099;51.946;4.838;2024-03-02T01:51:52;0.70;;;0.30;;
39370;SDS011;25099;51.946;4.838;2024-03-02T01:54:18;1.75;;;0.60;;
39370;SDS011;25099;51.946;4.838;2024-03-02T01:56:44;0.50;;;0.40;;
39370;SDS011;25099;51.946;4.838;2024-03-02T01:59:10;0.82;;;0.52;;
39370;SDS011;25099;51.946;4.838;2024-03-02T02:01:38;2.15;;;0.30;;
39370;SDS011;25099;51.946;4.838;2024-03-02T02:04:03;1.75;;;0.50;;
39370;SDS011;25099;51.946;4.838;2024-03-02T02:06:29;2.00;;;0.50;;
39370;SDS011;25099;51.946;4.838;2024-03-02T02:08:54;0.73;;;0.40;;
39370;SDS011;25099;51.946;4.838;2024-03-02T02:11:20;1.48;;;0.50;;
39370;SDS011;25099;51.946;4.838;2024-03-02T02:13:45;1.15;;;0.50;;
39370;SDS011;25099;51.946;4.838;2024-03-02T02:16:11;0.50;;;0.50;;
39370;SDS011;25099;51.946;4.838;2024-03-02T02:18:36;0.40;;;0.40;;
39370;SDS011;25099;51.946;4.838;2024-03-02T02:21:02;0.57;;;0.57;;
39370;SDS011;25099;51.946;4.838;2024-03-02T02:23:28;0.68;;;0.40;;
39370;SDS011;25099;51.946;4.838;2024-03-02T02:25:54;2.40;;;0.63;;
39370;SDS011;25099;51.946;4.838;2024-03-02T02:28:19;0.85;;;0.52;;
39370;SDS011;25099;51.946;4.838;2024-03-02T02:30:45;0.82;;;0.50;;
39370;SDS011;25099;51.946;4.838;2024-03-02T02:33:11;1.25;;;0.60;;
39370;SDS011;25099;51.946;4.838;2024-03-02T02:35:36;1.33;;;0.63;;
39370;SDS011;25099;51.946;4.838;2024-03-02T02:38:02;0.60;;;0.60;;
39370;SDS011;25099;51.946;4.838;2024-03-02T02:40:29;1.13;;;0.68;;
39370;SDS011;25099;51.946;4.838;2024-03-02T02:42:56;0.60;;;0.60;;
39370;SDS011;25099;51.946;4.838;2024-03-02T02:45:22;2.38;;;0.93;;
39370;SDS011;25099;51.946;4.838;2024-03-02T02:47:47;1.20;;;0.70;;
39370;SDS011;25099;51.946;4.838;2024-03-02T02:50:13;0.65;;;0.65;;
39370;SDS011;25099;51.946;4.838;2024-03-02T02:52:40;0.88;;;0.73;;
39370;SDS011;25099;51.946;4.838;2024-03-02T02:55:07;0.60;;;0.60;;
39370;SDS011;25099;51.946;4.838;2024-03-02T02:57:36;0.60;;;0.60;;
39370;SDS011;25099;51.946;4.838;2024-03-02T03:00:08;4.05;;;0.65;;
39370;SDS011;25099;51.946;4.838;2024-03-02T03:02:41;0.60;;;0.60;;
39370;SDS011;25099;51.946;4.838;2024-03-02T03:05:07;0.30;;;0.30;;
39370;SDS011;25099;51.946;4.838;2024-03-02T03:07:34;1.15;;;0.40;;
39370;SDS011;25099;51.946;4.838;2024-03-02T03:09:59;0.95;;;0.50;;
39370;SDS011;25099;51.946;4.838;2024-03-02T03:12:26;1.33;;;0.60;;
39370;SDS011;25099;51.946;4.838;2024-03-02T03:14:51;0.52;;;0.50;;
39370;SDS011;25099;51.946;4.838;2024-03-02T03:17:17;0.90;;;0.50;;
39370;SDS011;25099;51.946;4.838;2024-03-02T03:19:43;0.60;;;0.40;;
39370;SDS011;25099;51.946;4.838;2024-03-02T03:22:08;2.33;;;0.43;;
39370;SDS011;25099;51.946;4.838;2024-03-02T03:24:34;1.25;;;0.60;;
39370;SDS011;25099;51.946;4.838;2024-03-02T03:27:00;0.60;;;0.60;;
39370;SDS011;25099;51.946;4.838;2024-03-02T03:29:25;0.90;;;0.40;;
39370;SDS011;25099;51.946;4.838;2024-03-02T03:31:51;0.82;;;0.57;;
39370;SDS011;25099;51.946;4.838;2024-03-02T03:34:16;0.38;;;0.38;;
39370;SDS011;25099;51.946;4.838;2024-03-02T03:36:42;0.40;;;0.40;;
39370;SDS011;25099;51.946;4.838;2024-03-02T03:39:08;1.08;;;0.60;;
39370;SDS011;25099;51.946;4.838;2024-03-02T03:41:33;0.57;;;0.40;;
39370;SDS011;25099;51.946;4.838;2024-03-02T03:43:59;0.40;;;0.40;;
39370;SDS011;25099;51.946;4.838;2024-03-02T03:46:24;1.17;;;0.50;;
39370;SDS011;25099;51.946;4.838;2024-03-02T03:48:50;1.52;;;0.40;;
39370;SDS011;25099;51.946;4.838;2024-03-02T03:51:16;0.30;;;0.30;;
39370;SDS011;25099;51.946;4.838;2024-03-02T03:53:41;0.40;;;0.40;;
39370;SDS011;25099;51.946;4.838;2024-03-02T03:56:07;0.60;;;0.50;;
39370;SDS011;25099;51.946;4.838;2024-03-02T03:58:33;0.65;;;0.35;;
39370;SDS011;25099;51.946;4.838;2024-03-02T04:00:59;1.98;;;0.47;;
39370;SDS011;25099;51.946;4.838;2024-03-02T04:03:24;0.68;;;0.50;;
39370;SDS011;25099;51.946;4.838;2024-03-02T04:05:50;1.17;;;0.60;;
39370;SDS011;25099;51.946;4.838;2024-03-02T04:08:16;1.30;;;0.47;;
39370;SDS011;25099;51.946;4.838;2024-03-02T04:10:41;1.40;;;0.45;;
39370;SDS011;25099;51.946;4.838;2024-03-02T04:13:07;3.88;;;1.08;;
39370;SDS011;25099;51.946;4.838;2024-03-02T04:15:32;3.03;;;0.70;;
39370;SDS011;25099;51.946;4.838;2024-03-02T04:17:58;0.52;;;0.52;;
39370;SDS011;25099;51.946;4.838;2024-03-02T04:20:23;0.68;;;0.60;;
39370;SDS011;25099;51.946;4.838;2024-03-02T04:22:50;2.92;;;0.70;;
39370;SDS011;25099;51.946;4.838;2024-03-02T04:25:15;0.50;;;0.50;;
39370;SDS011;25099;51.946;4.838;2024-03-02T04:27:41;3.88;;;0.60;;
39370;SDS011;25099;51.946;4.838;2024-03-02T04:30:07;2.30;;;0.60;;
39370;SDS011;25099;51.946;4.838;2024-03-02T04:32:32;2.05;;;0.63;;
39370;SDS011;25099;51.946;4.838;2024-03-02T04:34:58;2.00;;;0.73;;
39370;SDS011;25099;51.946;4.838;2024-03-02T04:37:23;0.68;;;0.68;;
39370;SDS011;25099;51.946;4.838;2024-03-02T04:39:49;0.50;;;0.47;;
39370;SDS011;25099;51.946;4.838;2024-03-02T04:42:14;1.02;;;0.50;;
39370;SDS011;25099;51.946;4.838;2024-03-02T04:44:40;1.35;;;0.60;;
39370;SDS011;25099;51.946;4.838;2024-03-02T04:47:06;1.08;;;0.70;;
39370;SDS011;25099;51.946;4.838;2024-03-02T04:49:31;0.73;;;0.70;;
39370;SDS011;25099;51.946;4.838;2024-03-02T04:51:57;3.00;;;1.10;;
39370;SDS011;25099;51.946;4.838;2024-03-02T04:54:22;2.15;;;0.70;;
39370;SDS011;25099;51.946;4.838;2024-03-02T04:56:48;1.00;;;0.70;;
39370;SDS011;25099;51.946;4.838;2024-03-02T04:59:17;0.60;;;0.50;;
39370;SDS011;25099;51.946;4.838;2024-03-02T05:01:43;0.70;;;0.63;;
39370;SDS011;25099;51.946;4.838;2024-03-02T05:04:09;0.60;;;0.52;;
39370;SDS011;25099;51.946;4.838;2024-03-02T05:06:37;0.98;;;0.50;;
39370;SDS011;25099;51.946;4.838;2024-03-02T05:09:04;1.42;;;0.70;;
39370;SDS011;25099;51.946;4.838;2024-03-02T05:11:30;1.63;;;0.60;;
39370;SDS011;25099;51.946;4.838;2024-03-02T05:14:04;1.67;;;0.73;;
39370;SDS011;25099;51.946;4.838;2024-03-02T05:16:34;0.75;;;0.60;;
39370;SDS011;25099;51.946;4.838;2024-03-02T05:19:00;3.15;;;0.85;;
39370;SDS011;25099;51.946;4.838;2024-03-02T05:21:26;0.60;;;0.60;;
39370;SDS011;25099;51.946;4.838;2024-03-02T05:23:52;1.17;;;0.60;;
39370;SDS011;25099;51.946;4.838;2024-03-02T05:26:17;1.17;;;0.65;;
39370;SDS011;25099;51.946;4.838;2024-03-02T05:28:43;0.70;;;0.52;;
39370;SDS011;25099;51.946;4.838;2024-03-02T05:31:11;1.52;;;0.85;;
39370;SDS011;25099;51.946;4.838;2024-03-02T05:33:40;0.63;;;0.50;;
39370;SDS011;25099;51.946;4.838;2024-03-02T05:36:06;1.38;;;0.65;;
39370;SDS011;25099;51.946;4.838;2024-03-02T05:38:32;0.73;;;0.60;;
39370;SDS011;25099;51.946;4.838;2024-03-02T05:41:00;1.67;;;0.82;;
39370;SDS011;25099;51.946;4.838;2024-03-02T05:43:25;1.20;;;0.50;;
39370;SDS011;25099;51.946;4.838;2024-03-02T05:45:51;1.33;;;0.98;;
39370;SDS011;25099;51.946;4.838;2024-03-02T05:48:16;1.67;;;1.08;;
39370;SDS011;25099;51.946;4.838;2024-03-02T05:50:42;2.72;;;0.70;;
39370;SDS011;25099;51.946;4.838;2024-03-02T05:53:07;1.48;;;0.85;;
39370;SDS011;25099;51.946;4.838;2024-03-02T05:55:33;2.22;;;0.60;;
39370;SDS011;25099;51.946;4.838;2024-03-02T05:57:58;2.60;;;0.60;;
39370;SDS011;25099;51.946;4.838;2024-03-02T06:00:56;0.60;;;0.47;;
39370;SDS011;25099;51.946;4.838;2024-03-02T06:03:22;1.50;;;0.82;;
39370;SDS011;25099;51.946;4.838;2024-03-02T06:05:47;1.15;;;0.63;;
39370;SDS011;25099;51.946;4.838;2024-03-02T06:08:14;0.88;;;0.57;;
39370;SDS011;25099;51.946;4.838;2024-03-02T06:10:39;2.30;;;0.47;;
39370;SDS011;25099;51.946;4.838;2024-03-02T06:13:05;2.58;;;0.60;;
39370;SDS011;25099;51.946;4.838;2024-03-02T06:15:30;1.95;;;0.85;;
39370;SDS011;25099;51.946;4.838;2024-03-02T06:17:56;0.90;;;0.35;;
39370;SDS011;25099;51.946;4.838;2024-03-02T06:20:22;1.50;;;0.50;;
39370;SDS011;25099;51.946;4.838;2024-03-02T06:22:47;1.85;;;0.52;;
39370;SDS011;25099;51.946;4.838;2024-03-02T06:25:13;4.18;;;0.40;;
39370;SDS011;25099;51.946;4.838;2024-03-02T06:27:38;1.42;;;0.55;;
39370;SDS011;25099;51.946;4.838;2024-03-02T06:30:04;2.35;;;0.60;;
39370;SDS011;25099;51.946;4.838;2024-03-02T06:32:30;1.63;;;0.50;;
39370;SDS011;25099;51.946;4.838;2024-03-02T06:34:56;0.98;;;0.60;;
39370;SDS011;25099;51.946;4.838;2024-03-02T06:37:21;8.23;;;0.80;;
39370;SDS011;25099;51.946;4.838;2024-03-02T06:39:47;0.55;;;0.55;;
39370;SDS011;25099;51.946;4.838;2024-03-02T06:42:12;3.45;;;0.68;;
39370;SDS011;25099;51.946;4.838;2024-03-02T06:44:38;1.50;;;0.73;;
39370;SDS011;25099;51.946;4.838;2024-03-02T06:47:03;1.38;;;0.60;;
39370;SDS011;25099;51.946;4.838;2024-03-02T06:49:29;3.67;;;0.82;;
39370;SDS011;25099;51.946;4.838;2024-03-02T06:51:55;1.65;;;0.50;;
39370;SDS011;25099;51.946;4.838;2024-03-02T06:54:20;2.03;;;0.80;;
39370;SDS011;25099;51.946;4.838;2024-03-02T06:56:46;2.30;;;0.93;;
39370;SDS011;25099;51.946;4.838;2024-03-02T06:59:12;3.80;;;0.80;;
39370;SDS011;25099;51.946;4.838;2024-03-02T07:01:37;1.42;;;0.50;;
39370;SDS011;25099;51.946;4.838;2024-03-02T07:04:03;2.97;;;1.00;;
39370;SDS011;25099;51.946;4.838;2024-03-02T07:06:31;1.77;;;0.95;;
39370;SDS011;25099;51.946;4.838;2024-03-02T07:08:57;2.40;;;0.73;;
39370;SDS011;25099;51.946;4.838;2024-03-02T07:11:22;2.03;;;0.82;;
39370;SDS011;25099;51.946;4.838;2024-03-02T07:13:48;3.60;;;0.50;;
39370;SDS011;25099;51.946;4.838;2024-03-02T07:16:13;3.67;;;1.00;;
39370;SDS011;25099;51.946;4.838;2024-03-02T07:18:57;4.15;;;1.05;;
39370;SDS011;25099;51.946;4.838;2024-03-02T07:21:24;3.28;;;0.80;;
39370;SDS011;25099;51.946;4.838;2024-03-02T07:23:49;4.68;;;1.00;;
39370;SDS011;25099;51.946;4.838;2024-03-02T07:26:15;2.58;;;0.60;;
39370;SDS011;25099;51.946;4.838;2024-03-02T07:28:43;2.80;;;0.70;;
39370;SDS011;25099;51.946;4.838;2024-03-02T07:31:09;1.85;;;0.57;;
39370;SDS011;25099;51.946;4.838;2024-03-02T07:33:35;0.88;;;0.70;;
39370;SDS011;25099;51.946;4.838;2024-03-02T07:36:00;2.47;;;0.70;;
39370;SDS011;25099;51.946;4.838;2024-03-02T07:38:28;4.90;;;1.08;;
39370;SDS011;25099;51.946;4.838;2024-03-02T07:40:54;5.28;;;0.98;;
39370;SDS011;25099;51.946;4.838;2024-03-02T07:43:20;3.35;;;0.73;;
39370;SDS011;25099;51.946;4.838;2024-03-02T07:45:46;2.78;;;1.35;;
39370;SDS011;25099;51.946;4.838;2024-03-02T07:48:13;1.45;;;0.70;;
39370;SDS011;25099;51.946;4.838;2024-03-02T07:50:39;1.05;;;0.57;;
39370;SDS011;25099;51.946;4.838;2024-03-02T07:53:05;4.60;;;0.63;;
39370;SDS011;25099;51.946;4.838;2024-03-02T07:55:31;1.02;;;0.50;;
39370;SDS011;25099;51.946;4.838;2024-03-02T07:57:56;3.35;;;0.80;;
39370;SDS011;25099;51.946;4.838;2024-03-02T08:00:22;2.95;;;0.77;;
39370;SDS011;25099;51.946;4.838;2024-03-02T08:02:48;3.72;;;0.77;;
39370;SDS011;25099;51.946;4.838;2024-03-02T08:05:15;3.33;;;0.95;;
39370;SDS011;25099;51.946;4.838;2024-03-02T08:07:41;2.63;;;0.80;;
39370;SDS011;25099;51.946;4.838;2024-03-02T08:10:09;5.03;;;0.68;;
39370;SDS011;25099;51.946;4.838;2024-03-02T08:12:35;3.42;;;0.90;;
39370;SDS011;25099;51.946;4.838;2024-03-02T08:15:00;3.55;;;0.95;;
39370;SDS011;25099;51.946;4.838;2024-03-02T08:17:26;3.63;;;1.35;;
39370;SDS011;25099;51.946;4.838;2024-03-02T08:19:52;4.15;;;1.02;;
39370;SDS011;25099;51.946;4.838;2024-03-02T08:22:18;3.38;;;1.30;;
39370;SDS011;25099;51.946;4.838;2024-03-02T08:24:44;3.80;;;1.25;;
39370;SDS011;25099;51.946;4.838;2024-03-02T08:27:12;6.63;;;0.90;;
39370;SDS011;25099;51.946;4.838;2024-03-02T08:29:38;3.72;;;0.77;;
39370;SDS011;25099;51.946;4.838;2024-03-02T08:32:03;7.78;;;0.80;;
39370;SDS011;25099;51.946;4.838;2024-03-02T08:34:31;4.93;;;1.20;;
39370;SDS011;25099;51.946;4.838;2024-03-02T08:36:56;4.25;;;1.08;;
39370;SDS011;25099;51.946;4.838;2024-03-02T08:39:22;4.18;;;1.10;;
39370;SDS011;25099;51.946;4.838;2024-03-02T08:41:47;2.33;;;1.10;;
39370;SDS011;25099;51.946;4.838;2024-03-02T08:44:13;2.35;;;0.80;;
39370;SDS011;25099;51.946;4.838;2024-03-02T08:46:40;1.80;;;0.93;;
39370;SDS011;25099;51.946;4.838;2024-03-02T08:49:06;5.03;;;1.00;;
39370;SDS011;25099;51.946;4.838;2024-03-02T08:51:32;3.38;;;0.90;;
39370;SDS011;25099;51.946;4.838;2024-03-02T08:53:58;5.80;;;1.10;;
39370;SDS011;25099;51.946;4.838;2024-03-02T08:56:24;3.20;;;0.90;;
39370;SDS011;25099;51.946;4.838;2024-03-02T08:58:50;2.50;;;0.60;;
39370;SDS011;25099;51.946;4.838;2024-03-02T09:01:16;6.55;;;1.35;;
39370;SDS011;25099;51.946;4.838;2024-03-02T09:03:43;4.47;;;1.23;;
39370;SDS011;25099;51.946;4.838;2024-03-02T09:06:12;4.05;;;1.10;;
39370;SDS011;25099;51.946;4.838;2024-03-02T09:08:39;2.75;;;1.08;;
39370;SDS011;25099;51.946;4.838;2024-03-02T09:11:05;6.78;;;1.45;;
39370;SDS011;25099;51.946;4.838;2024-03-02T09:13:31;3.20;;;1.17;;
39370;SDS011;25099;51.946;4.838;2024-03-02T09:15:57;4.68;;;1.63;;
39370;SDS011;25099;51.946;4.838;2024-03-02T09:18:23;4.55;;;1.25;;
39370;SDS011;25099;51.946;4.838;2024-03-02T09:20:49;4.57;;;0.88;;
39370;SDS011;25099;51.946;4.838;2024-03-02T09:23:14;3.42;;;1.10;;
39370;SDS011;25099;51.946;4.838;2024-03-02T09:25:40;8.65;;;1.60;;
39370;SDS011;25099;51.946;4.838;2024-03-02T09:28:05;6.55;;;1.48;;
39370;SDS011;25099;51.946;4.838;2024-03-02T09:30:33;2.30;;;1.00;;
39370;SDS011;25099;51.946;4.838;2024-03-02T09:32:58;6.70;;;1.30;;
39370;SDS011;25099;51.946;4.838;2024-03-02T09:35:24;10.75;;;1.52;;
39370;SDS011;25099;51.946;4.838;2024-03-02T09:37:50;4.75;;;1.17;;
39370;SDS011;25099;51.946;4.838;2024-03-02T09:40:16;6.75;;;1.13;;
39370;SDS011;25099;51.946;4.838;2024-03-02T09:42:41;3.95;;;1.50;;
39370;SDS011;25099;51.946;4.838;2024-03-02T09:45:08;4.53;;;1.17;;
39370;SDS011;25099;51.946;4.838;2024-03-02T09:47:34;7.25;;;1.27;;
39370;SDS011;25099;51.946;4.838;2024-03-02T09:50:00;4.35;;;1.48;;
39370;SDS011;25099;51.946;4.838;2024-03-02T09:52:25;4.45;;;1.27;;
39370;SDS011;25099;51.946;4.838;2024-03-02T09:54:51;7.03;;;1.52;;
39370;SDS011;25099;51.946;4.838;2024-03-02T09:57:17;9.43;;;1.20;;
39370;SDS011;25099;51.946;4.838;2024-03-02T09:59:43;7.72;;;1.50;;
39370;SDS011;25099;51.946;4.838;2024-03-02T10:02:10;5.20;;;1.45;;
39370;SDS011;25099;51.946;4.838;2024-03-02T10:04:36;7.75;;;1.33;;
39370;SDS011;25099;51.946;4.838;2024-03-02T10:07:17;4.00;;;1.00;;
39370;SDS011;25099;51.946;4.838;2024-03-02T10:09:44;3.78;;;1.17;;
39370;SDS011;25099;51.946;4.838;2024-03-02T10:12:12;6.30;;;1.00;;
39370;SDS011;25099;51.946;4.838;2024-03-02T10:14:39;3.60;;;1.15;;
39370;SDS011;25099;51.946;4.838;2024-03-02T10:17:06;1.70;;;1.33;;
39370;SDS011;25099;51.946;4.838;2024-03-02T10:19:32;13.18;;;1.95;;
39370;SDS011;25099;51.946;4.838;2024-03-02T10:22:00;4.38;;;1.63;;
39370;SDS011;25099;51.946;4.838;2024-03-02T10:24:27;7.47;;;1.27;;
39370;SDS011;25099;51.946;4.838;2024-03-02T10:27:01;8.77;;;1.92;;
39370;SDS011;25099;51.946;4.838;2024-03-02T10:29:29;5.82;;;1.48;;
39370;SDS011;25099;51.946;4.838;2024-03-02T10:31:55;3.78;;;1.00;;
39370;SDS011;25099;51.946;4.838;2024-03-02T10:34:21;7.38;;;1.45;;
39370;SDS011;25099;51.946;4.838;2024-03-02T10:36:47;3.63;;;1.05;;
39370;SDS011;25099;51.946;4.838;2024-03-02T10:39:13;4.97;;;1.52;;
39370;SDS011;25099;51.946;4.838;2024-03-02T10:41:39;2.85;;;1.17;;
39370;SDS011;25099;51.946;4.838;2024-03-02T10:44:06;4.55;;;1.08;;
39370;SDS011;25099;51.946;4.838;2024-03-02T10:46:33;6.05;;;1.35;;
39370;SDS011;25099;51.946;4.838;2024-03-02T10:49:01;3.65;;;1.08;;
39370;SDS011;25099;51.946;4.838;2024-03-02T10:51:29;8.38;;;1.70;;
39370;SDS011;25099;51.946;4.838;2024-03-02T10:54:01;4.82;;;0.98;;
39370;SDS011;25099;51.946;4.838;2024-03-02T10:56:29;4.95;;;0.85;;
39370;SDS011;25099;51.946;4.838;2024-03-02T10:59:15;4.28;;;0.90;;
39370;SDS011;25099;51.946;4.838;2024-03-02T11:01:43;8.60;;;1.40;;
39370;SDS011;25099;51.946;4.838;2024-03-02T11:04:10;10.15;;;1.40;;
39370;SDS011;25099;51.946;4.838;2024-03-02T11:06:40;6.70;;;1.00;;
39370;SDS011;25099;51.946;4.838;2024-03-02T11:09:21;2.00;;;0.73;;
39370;SDS011;25099;51.946;4.838;2024-03-02T11:11:54;2.35;;;1.10;;
39370;SDS011;25099;51.946;4.838;2024-03-02T11:14:27;3.65;;;1.15;;
39370;SDS011;25099;51.946;4.838;2024-03-02T11:16:56;3.53;;;1.23;;
39370;SDS011;25099;51.946;4.838;2024-03-02T11:19:23;2.50;;;1.08;;
39370;SDS011;25099;51.946;4.838;2024-03-02T11:21:49;3.05;;;1.00;;
39370;SDS011;25099;51.946;4.838;2024-03-02T11:24:29;5.65;;;1.20;;
39370;SDS011;25099;51.946;4.838;2024-03-02T11:27:00;8.73;;;1.98;;
39370;SDS011;25099;51.946;4.838;2024-03-02T11:32:00;3.22;;;1.00;;
39370;SDS011;25099;51.946;4.838;2024-03-02T11:35:03;5.03;;;0.80;;
39370;SDS011;25099;51.946;4.838;2024-03-02T11:37:34;6.80;;;1.58;;
39370;SDS011;25099;51.946;4.838;2024-03-02T11:40:14;2.72;;;1.15;;
39370;SDS011;25099;51.946;4.838;2024-03-02T11:53:06;5.95;;;1.20;;
39370;SDS011;25099;51.946;4.838;2024-03-02T11:55:36;5.63;;;0.75;;
39370;SDS011;25099;51.946;4.838;2024-03-02T12:06:06;7.15;;;1.20;;
39370;SDS011;25099;51.946;4.838;2024-03-02T12:08:32;5.22;;;1.42;;
39370;SDS011;25099;51.946;4.838;2024-03-02T12:11:01;4.35;;;1.05;;
39370;SDS011;25099;51.946;4.838;2024-03-02T12:13:27;7.28;;;1.30;;
39370;SDS011;25099;51.946;4.838;2024-03-02T12:20:56;3.05;;;0.90;;
39370;SDS011;25099;51.946;4.838;2024-03-02T12:31:40;3.50;;;1.30;;
39370;SDS011;25099;51.946;4.838;2024-03-02T12:34:12;6.32;;;1.55;;
39370;SDS011;25099;51.946;4.838;2024-03-02T12:39:09;8.88;;;1.25;;
39370;SDS011;25099;51.946;4.838;2024-03-02T12:41:44;3.40;;;1.27;;
39370;SDS011;25099;51.946;4.838;2024-03-02T12:44:11;3.83;;;1.25;;
39370;SDS011;25099;51.946;4.838;2024-03-02T12:46:39;4.93;;;1.25;;
39370;SDS011;25099;51.946;4.838;2024-03-02T12:49:07;3.22;;;1.02;;
39370;SDS011;25099;51.946;4.838;2024-03-02T12:51:35;7.57;;;1.10;;
39370;SDS011;25099;51.946;4.838;2024-03-02T12:54:01;3.85;;;1.08;;
39370;SDS011;25099;51.946;4.838;2024-03-02T12:56:28;3.45;;;1.20;;
39370;SDS011;25099;51.946;4.838;2024-03-02T12:58:54;4.28;;;1.15;;
39370;SDS011;25099;51.946;4.838;2024-03-02T13:11:42;4.07;;;1.10;;
39370;SDS011;25099;51.946;4.838;2024-03-02T13:19:17;4.97;;;1.40;;
39370;SDS011;25099;51.946;4.838;2024-03-02T13:21:46;2.75;;;1.10;;
39370;SDS011;25099;51.946;4.838;2024-03-02T13:24:11;7.00;;;1.15;;
39370;SDS011;25099;51.946;4.838;2024-03-02T13:26:37;3.33;;;0.90;;
39370;SDS011;25099;51.946;4.838;2024-03-02T13:29:03;2.83;;;0.90;;
39370;SDS011;25099;51.946;4.838;2024-03-02T13:31:28;5.28;;;1.50;;
39370;SDS011;25099;51.946;4.838;2024-03-02T13:36:43;4.97;;;1.00;;
39370;SDS011;25099;51.946;4.838;2024-03-02T13:39:09;5.07;;;0.80;;
39370;SDS011;25099;51.946;4.838;2024-03-02T13:41:35;5.45;;;1.20;;
39370;SDS011;25099;51.946;4.838;2024-03-02T13:44:01;2.42;;;1.17;;
39370;SDS011;25099;51.946;4.838;2024-03-02T13:46:28;3.20;;;0.98;;
39370;SDS011;25099;51.946;4.838;2024-03-02T13:48:54;2.90;;;0.85;;
39370;SDS011;25099;51.946;4.838;2024-03-02T13:51:20;2.38;;;0.88;;
39370;SDS011;25099;51.946;4.838;2024-03-02T13:53:46;2.85;;;1.00;;
39370;SDS011;25099;51.946;4.838;2024-03-02T13:56:12;4.55;;;1.48;;
39370;SDS011;25099;51.946;4.838;2024-03-02T13:58:38;2.53;;;1.00;;
39370;SDS011;25099;51.946;4.838;2024-03-02T14:01:04;5.47;;;1.60;;
39370;SDS011;25099;51.946;4.838;2024-03-02T14:03:30;3.88;;;1.35;;
39370;SDS011;25099;51.946;4.838;2024-03-02T14:05:58;2.05;;;1.15;;
39370;SDS011;25099;51.946;4.838;2024-03-02T14:08:24;2.35;;;0.95;;
39370;SDS011;25099;51.946;4.838;2024-03-02T14:10:50;9.35;;;1.50;;
39370;SDS011;25099;51.946;4.838;2024-03-02T14:13:16;1.92;;;1.00;;
39370;SDS011;25099;51.946;4.838;2024-03-02T14:15:41;3.10;;;1.00;;
39370;SDS011;25099;51.946;4.838;2024-03-02T14:18:07;2.90;;;1.00;;
39370;SDS011;25099;51.946;4.838;2024-03-02T14:20:36;1.85;;;1.05;;
39370;SDS011;25099;51.946;4.838;2024-03-02T14:23:02;4.70;;;1.25;;
39370;SDS011;25099;51.946;4.838;2024-03-02T14:25:29;4.65;;;1.60;;
39370;SDS011;25099;51.946;4.838;2024-03-02T14:27:59;2.13;;;1.40;;
39370;SDS011;25099;51.946;4.838;2024-03-02T14:30:25;6.70;;;1.65;;
39370;SDS011;25099;51.946;4.838;2024-03-02T14:32:51;3.15;;;1.05;;
39370;SDS011;25099;51.946;4.838;2024-03-02T14:35:16;5.93;;;1.05;;
39370;SDS011;25099;51.946;4.838;2024-03-02T14:37:42;7.15;;;1.40;;
39370;SDS011;25099;51.946;4.838;2024-03-02T14:40:08;2.75;;;0.90;;
39370;SDS011;25099;51.946;4.838;2024-03-02T14:42:35;4.82;;;1.73;;
39370;SDS011;25099;51.946;4.838;2024-03-02T14:45:01;4.18;;;1.50;;
39370;SDS011;25099;51.946;4.838;2024-03-02T14:47:29;2.97;;;1.23;;
39370;SDS011;25099;51.946;4.838;2024-03-02T14:50:01;4.65;;;1.00;;
39370;SDS011;25099;51.946;4.838;2024-03-02T14:52:31;2.88;;;1.10;;
39370;SDS011;25099;51.946;4.838;2024-03-02T14:54:57;5.05;;;1.13;;
39370;SDS011;25099;51.946;4.838;2024-03-02T14:57:23;3.90;;;1.30;;
39370;SDS011;25099;51.946;4.838;2024-03-02T14:59:49;6.75;;;1.35;;
39370;SDS011;25099;51.946;4.838;2024-03-02T15:02:14;4.65;;;1.30;;
39370;SDS011;25099;51.946;4.838;2024-03-02T15:04:40;1.80;;;1.13;;
39370;SDS011;25099;51.946;4.838;2024-03-02T15:07:06;2.50;;;1.13;;
39370;SDS011;25099;51.946;4.838;2024-03-02T15:09:31;7.38;;;2.00;;
39370;SDS011;25099;51.946;4.838;2024-03-02T15:11:59;2.25;;;0.88;;
39370;SDS011;25099;51.946;4.838;2024-03-02T15:14:25;4.22;;;1.38;;
39370;SDS011;25099;51.946;4.838;2024-03-02T15:16:51;2.88;;;1.33;;
39370;SDS011;25099;51.946;4.838;2024-03-02T15:19:17;5.93;;;1.02;;
39370;SDS011;25099;51.946;4.838;2024-03-02T15:21:42;2.60;;;0.95;;
39370;SDS011;25099;51.946;4.838;2024-03-02T15:24:08;3.42;;;1.38;;
39370;SDS011;25099;51.946;4.838;2024-03-02T15:26:34;4.43;;;1.52;;
39370;SDS011;25099;51.946;4.838;2024-03-02T15:29:05;3.63;;;1.20;;
39370;SDS011;25099;51.946;4.838;2024-03-02T15:31:31;5.10;;;1.25;;
39370;SDS011;25099;51.946;4.838;2024-03-02T15:33:56;3.60;;;0.82;;
39370;SDS011;25099;51.946;4.838;2024-03-02T15:36:23;5.53;;;1.30;;
39370;SDS011;25099;51.946;4.838;2024-03-02T15:38:52;5.00;;;1.20;;
39370;SDS011;25099;51.946;4.838;2024-03-02T15:41:17;4.05;;;2.50;;
39370;SDS011;25099;51.946;4.838;2024-03-02T15:43:43;7.03;;;2.72;;
39370;SDS011;25099;51.946;4.838;2024-03-02T15:46:08;6.85;;;2.80;;
39370;SDS011;25099;51.946;4.838;2024-03-02T15:48:35;4.95;;;1.92;;
39370;SDS011;25099;51.946;4.838;2024-03-02T15:51:01;3.90;;;1.63;;